Time;durP1;ratioP1;P1;durP2;ratioP2;P2;SDS_P1;SDS_P2;PMS_P1;PMS_P2;Temp;Humidity;BMP_temperature;BMP_pressure;BME280_temperature;BME280_humidity;BME280_pressure;Samples;Min_cycle;Max_cycle;Signal;HPM_P1;HPM_P2
2021/05/15 00:01:40;;;;;;;24.23;20.90;;;10.10;99.90;;;;;;5136295;27;20297;-55
2021/05/15 00:04:07;;;;;;;23.03;20.43;;;10.20;99.90;;;;;;5136148;27;20191;-59
2021/05/15 00:06:34;;;;;;;24.13;20.43;;;10.20;99.90;;;;;;5135748;27;20195;-57
2021/05/15 00:09:00;;;;;;;24.00;20.67;;;10.20;99.90;;;;;;5135968;27;20191;-58
2021/05/15 00:11:26;;;;;;;22.80;20.37;;;10.30;99.90;;;;;;5135641;27;20728;-55
2021/05/15 00:13:52;;;;;;;22.10;19.77;;;10.30;99.90;;;;;;5135636;27;20190;-57
2021/05/15 00:16:19;;;;;;;22.17;19.73;;;10.30;99.90;;;;;;5120740;27;20646;-59
2021/05/15 00:18:46;;;;;;;21.67;19.37;;;10.20;99.90;;;;;;5115380;28;20216;-59
2021/05/15 00:21:13;;;;;;;19.60;17.50;;;10.10;99.90;;;;;;5115159;28;20248;-59
2021/05/15 00:23:39;;;;;;;24.40;20.07;;;10.10;99.90;;;;;;5115294;28;20655;-59
2021/05/15 00:26:06;;;;;;;21.73;19.07;;;10.10;99.90;;;;;;5114671;28;20632;-60
2021/05/15 00:28:32;;;;;;;20.83;18.63;;;10.10;99.90;;;;;;5114846;28;20191;-64
2021/05/15 00:30:59;;;;;;;21.57;19.27;;;10.10;99.90;;;;;;5114927;28;20199;-65
2021/05/15 00:33:25;;;;;;;19.30;17.30;;;10.10;99.90;;;;;;5114902;28;20655;-63
2021/05/15 00:35:52;;;;;;;19.17;17.27;;;10.10;99.90;;;;;;5114817;28;20196;-64
2021/05/15 00:38:19;;;;;;;17.97;15.60;;;10.00;99.90;;;;;;5114257;28;20269;-63
2021/05/15 00:40:45;;;;;;;18.67;16.67;;;10.00;99.90;;;;;;5114533;28;20309;-64
2021/05/15 00:43:11;;;;;;;17.80;15.97;;;10.10;99.90;;;;;;5114625;28;20191;-63
2021/05/15 00:45:37;;;;;;;17.90;16.10;;;10.30;99.90;;;;;;5114864;28;20191;-63
2021/05/15 00:48:04;;;;;;;16.23;14.53;;;10.30;99.90;;;;;;5114863;28;20198;-64
2021/05/15 00:50:32;;;;;;;16.87;15.27;;;10.30;99.90;;;;;;5114788;28;20229;-63
2021/05/15 00:52:59;;;;;;;17.77;15.90;;;10.30;99.90;;;;;;5114772;28;20282;-63
2021/05/15 00:55:26;;;;;;;17.30;15.50;;;10.00;99.90;;;;;;5114703;28;20230;-63
2021/05/15 00:57:55;;;;;;;19.37;17.33;;;9.90;99.90;;;;;;5114776;28;20206;-63
2021/05/15 01:00:22;;;;;;;17.47;15.57;;;9.90;99.90;;;;;;5113623;28;20215;-63
2021/05/15 01:02:48;;;;;;;19.20;15.93;;;9.90;99.90;;;;;;5114539;28;20252;-63
2021/05/15 01:05:15;;;;;;;18.33;16.47;;;9.80;99.90;;;;;;5114252;28;20593;-63
2021/05/15 01:07:43;;;;;;;18.87;16.90;;;9.80;99.90;;;;;;5114662;28;20195;-63
2021/05/15 01:10:12;;;;;;;17.80;16.00;;;9.80;99.90;;;;;;5114352;28;20643;-63
2021/05/15 01:12:45;;;;;;;17.93;16.00;;;9.90;99.90;;;;;;5114101;28;20549;-63
2021/05/15 01:15:13;;;;;;;17.87;16.07;;;10.00;99.90;;;;;;5114308;28;20184;-63
2021/05/15 01:17:39;;;;;;;17.87;15.73;;;9.90;99.90;;;;;;5113970;28;20198;-64
2021/05/15 01:20:06;;;;;;;18.13;15.40;;;9.90;99.90;;;;;;5113982;28;20314;-64
2021/05/15 01:22:33;;;;;;;17.23;15.37;;;9.80;99.90;;;;;;5113965;28;20818;-63
2021/05/15 01:24:59;;;;;;;18.37;16.37;;;9.80;99.90;;;;;;5114005;28;20271;-63
2021/05/15 01:27:26;;;;;;;17.37;15.30;;;9.70;99.90;;;;;;5113891;28;20195;-64
2021/05/15 01:29:52;;;;;;;17.37;15.57;;;9.70;99.90;;;;;;5113875;28;20270;-64
2021/05/15 01:32:18;;;;;;;17.40;15.60;;;9.70;99.90;;;;;;5113992;28;20195;-63
2021/05/15 01:34:44;;;;;;;19.00;16.20;;;9.70;99.90;;;;;;5113950;28;20647;-64
2021/05/15 01:37:11;;;;;;;17.23;15.53;;;9.80;99.90;;;;;;5113586;28;20187;-63
2021/05/15 01:39:38;;;;;;;16.53;14.87;;;9.70;99.90;;;;;;5113809;28;20299;-63
2021/05/15 01:42:05;;;;;;;16.37;14.63;;;9.70;99.90;;;;;;5113433;28;20200;-63
2021/05/15 01:44:31;;;;;;;17.33;15.50;;;9.50;99.90;;;;;;5113658;28;20287;-63
2021/05/15 01:46:57;;;;;;;18.07;16.03;;;9.40;99.90;;;;;;5113457;28;20192;-64
2021/05/15 01:49:23;;;;;;;19.23;17.20;;;9.30;99.90;;;;;;5113661;28;20281;-63
2021/05/15 01:51:50;;;;;;;20.00;17.60;;;9.30;99.90;;;;;;5113327;28;20282;-64
2021/05/15 01:54:16;;;;;;;18.30;16.40;;;9.40;99.90;;;;;;5113460;28;20191;-63
2021/05/15 01:56:43;;;;;;;16.53;14.90;;;9.50;99.90;;;;;;5113086;28;20601;-64
2021/05/15 01:59:09;;;;;;;18.63;15.90;;;9.30;99.90;;;;;;5113223;28;20207;-64
2021/05/15 02:01:36;;;;;;;18.90;16.27;;;9.30;99.90;;;;;;5113433;28;20278;-62
2021/05/15 02:04:03;;;;;;;18.87;15.67;;;9.30;99.90;;;;;;5113371;28;20247;-63
2021/05/15 02:06:29;;;;;;;19.20;16.00;;;9.30;99.90;;;;;;5113443;28;20206;-64
2021/05/15 02:08:55;;;;;;;17.70;15.90;;;9.20;99.90;;;;;;5113068;28;20260;-64
2021/05/15 02:11:22;;;;;;;17.77;15.87;;;9.00;99.90;;;;;;5112529;28;20286;-63
2021/05/15 02:13:50;;;;;;;17.50;15.70;;;9.00;99.90;;;;;;5113060;28;20236;-63
2021/05/15 02:16:17;;;;;;;19.37;16.70;;;9.20;99.90;;;;;;5113192;28;20284;-63
2021/05/15 02:18:43;;;;;;;18.20;16.30;;;9.30;99.90;;;;;;5112893;28;20532;-63
2021/05/15 02:21:10;;;;;;;19.43;15.20;;;9.30;99.90;;;;;;5113180;28;20252;-64
2021/05/15 02:23:36;;;;;;;18.07;15.30;;;9.30;99.90;;;;;;5113096;28;20203;-65
2021/05/15 02:26:03;;;;;;;18.03;16.13;;;9.30;99.90;;;;;;5112820;28;20278;-63
2021/05/15 02:28:30;;;;;;;17.20;15.33;;;9.30;99.90;;;;;;5113148;28;20251;-64
2021/05/15 02:30:57;;;;;;;17.30;15.43;;;9.20;99.90;;;;;;5113087;28;20234;-63
2021/05/15 02:33:23;;;;;;;17.90;16.03;;;9.00;99.90;;;;;;5113089;28;20191;-63
2021/05/15 02:35:50;;;;;;;18.03;16.17;;;9.10;99.90;;;;;;5113044;28;20278;-63
2021/05/15 02:38:18;;;;;;;18.43;15.77;;;9.20;99.90;;;;;;5112700;28;20223;-63
2021/05/15 02:40:46;;;;;;;17.87;15.97;;;9.20;99.90;;;;;;5112891;28;20788;-65
2021/05/15 02:43:12;;;;;;;17.87;15.00;;;9.20;99.90;;;;;;5112675;28;20199;-63
2021/05/15 02:45:39;;;;;;;17.17;15.37;;;9.20;99.90;;;;;;5112481;28;20567;-64
2021/05/15 02:48:06;;;;;;;16.47;14.77;;;9.00;99.90;;;;;;5112980;28;20207;-64
2021/05/15 02:50:33;;;;;;;17.00;14.87;;;8.90;99.90;;;;;;5112778;28;20647;-64
2021/05/15 02:52:59;;;;;;;17.43;15.63;;;8.70;99.90;;;;;;5113154;28;20191;-63
2021/05/15 02:55:26;;;;;;;16.20;14.50;;;8.80;99.90;;;;;;5113108;28;20196;-64
2021/05/15 02:57:53;;;;;;;15.90;14.30;;;8.90;99.90;;;;;;5112652;28;20188;-64
2021/05/15 03:00:22;;;;;;;15.90;14.00;;;8.90;99.90;;;;;;5112406;28;20211;-64
2021/05/15 03:02:48;;;;;;;17.40;15.30;;;8.80;99.90;;;;;;5112868;28;20192;-63
2021/05/15 03:05:18;;;;;;;15.53;13.93;;;8.70;99.90;;;;;;5113208;28;20195;-64
2021/05/15 03:07:45;;;;;;;15.63;14.00;;;8.80;99.90;;;;;;5112771;28;20184;-64
2021/05/15 03:10:12;;;;;;;15.93;14.27;;;8.80;99.90;;;;;;5112833;28;20283;-63
2021/05/15 03:12:39;;;;;;;14.13;12.60;;;8.90;99.90;;;;;;5112476;28;20192;-64
2021/05/15 03:15:07;;;;;;;14.93;13.40;;;8.70;99.90;;;;;;5112719;28;20339;-63
2021/05/15 03:17:34;;;;;;;13.97;12.50;;;8.60;99.90;;;;;;5112633;28;20236;-64
2021/05/15 03:20:01;;;;;;;15.30;13.03;;;8.60;99.90;;;;;;5112610;28;20212;-63
2021/05/15 03:22:28;;;;;;;13.83;12.33;;;8.60;99.90;;;;;;5112555;28;20358;-63
2021/05/15 03:24:54;;;;;;;13.63;11.83;;;8.80;99.90;;;;;;5116378;28;20282;-64
2021/05/15 03:27:20;;;;;;;13.43;12.07;;;8.80;99.90;;;;;;5116301;28;20244;-63
2021/05/15 03:29:47;;;;;;;13.50;12.17;;;8.80;99.90;;;;;;5116198;28;20244;-63
2021/05/15 03:32:13;;;;;;;12.90;11.60;;;8.70;99.90;;;;;;5116257;28;20248;-64
2021/05/15 03:34:39;;;;;;;13.20;11.87;;;8.60;99.90;;;;;;5116322;28;20192;-64
2021/05/15 03:37:06;;;;;;;14.40;12.90;;;8.50;99.90;;;;;;5116008;28;20231;-63
2021/05/15 03:39:33;;;;;;;13.57;11.77;;;8.50;99.90;;;;;;5116188;28;20324;-65
2021/05/15 03:41:59;;;;;;;14.20;12.10;;;8.50;99.90;;;;;;5115936;28;20231;-64
2021/05/15 03:44:25;;;;;;;12.80;11.60;;;8.60;99.90;;;;;;5115805;28;20271;-64
2021/05/15 03:46:52;;;;;;;13.00;11.47;;;8.70;99.90;;;;;;5116011;28;20274;-62
2021/05/15 03:49:19;;;;;;;12.97;11.40;;;8.70;99.90;;;;;;5116027;28;20184;-63
2021/05/15 03:51:45;;;;;;;12.40;11.13;;;8.60;99.90;;;;;;5116063;28;20191;-64
2021/05/15 03:54:11;;;;;;;13.03;11.73;;;8.40;99.90;;;;;;5115928;28;20187;-63
2021/05/15 03:56:38;;;;;;;12.40;11.03;;;8.50;99.90;;;;;;5116109;28;20272;-63
2021/05/15 03:59:05;;;;;;;12.57;11.20;;;8.60;99.90;;;;;;5115779;28;20198;-63
2021/05/15 04:01:31;;;;;;;11.10;10.00;;;8.70;99.90;;;;;;5115735;28;20274;-64
2021/05/15 04:03:57;;;;;;;10.87;9.77;;;8.80;99.90;;;;;;5115698;28;20462;-63
2021/05/15 04:06:24;;;;;;;11.27;10.17;;;8.90;99.90;;;;;;5115563;28;20287;-63
2021/05/15 04:08:50;;;;;;;12.07;9.87;;;9.00;99.90;;;;;;5115620;28;20188;-63
2021/05/15 04:11:16;;;;;;;10.73;9.63;;;9.00;99.90;;;;;;5115419;28;20618;-64
2021/05/15 04:13:48;;;;;;;10.60;9.60;;;9.00;99.90;;;;;;5115422;28;20282;-64
2021/05/15 04:16:17;;;;;;;11.43;10.23;;;8.90;99.90;;;;;;5115534;28;20180;-63
2021/05/15 04:18:44;;;;;;;11.00;10.00;;;9.00;99.90;;;;;;5115129;28;20215;-63
2021/05/15 04:21:10;;;;;;;12.13;9.93;;;9.00;99.90;;;;;;5115170;28;20214;-64
2021/05/15 04:23:36;;;;;;;10.13;9.13;;;9.00;99.90;;;;;;5115216;28;20287;-63
2021/05/15 04:26:03;;;;;;;10.57;9.47;;;9.00;99.90;;;;;;5115229;28;20199;-63
2021/05/15 04:28:30;;;;;;;10.53;9.53;;;9.20;99.90;;;;;;5114704;28;20223;-63
2021/05/15 04:30:57;;;;;;;11.97;9.37;;;9.30;99.90;;;;;;5115155;28;20197;-63
2021/05/15 04:33:24;;;;;;;9.93;8.93;;;9.30;99.90;;;;;;5114913;28;20631;-64
2021/05/15 04:35:52;;;;;;;9.83;8.80;;;9.40;99.90;;;;;;5114067;28;20198;-65
2021/05/15 04:38:19;;;;;;;10.07;9.07;;;9.40;99.90;;;;;;5114587;28;20258;-63
2021/05/15 04:40:46;;;;;;;10.33;9.33;;;9.40;99.90;;;;;;5114696;28;20222;-63
2021/05/15 04:43:14;;;;;;;9.97;8.40;;;9.50;99.90;;;;;;5114760;28;20192;-64
2021/05/15 04:45:40;;;;;;;8.93;8.03;;;9.60;99.90;;;;;;5114743;28;20234;-63
2021/05/15 04:48:08;;;;;;;9.53;8.63;;;9.60;99.90;;;;;;5114693;28;20282;-62
2021/05/15 04:50:34;;;;;;;8.93;8.03;;;9.70;99.90;;;;;;5114721;28;20298;-64
2021/05/15 04:53:01;;;;;;;8.60;7.80;;;10.00;99.90;;;;;;5114709;28;20564;-63
2021/05/15 04:55:27;;;;;;;6.37;5.83;;;10.90;99.90;;;;;;5114355;28;20187;-63
2021/05/15 04:57:54;;;;;;;4.85;4.45;;;12.60;99.90;;;;;;5114257;28;20610;-64
2021/05/15 05:00:20;;;;;;;4.90;4.40;;;14.90;99.90;;;;;;5114129;28;20588;-64
2021/05/15 05:02:46;;;;;;;4.07;3.67;;;17.00;99.90;;;;;;5114018;28;20227;-64
2021/05/15 05:05:14;;;;;;;3.88;3.53;;;18.50;99.90;;;;;;5113680;28;20524;-64
2021/05/15 05:07:40;;;;;;;3.85;3.55;;;19.90;99.90;;;;;;5114051;28;20667;-65
2021/05/15 05:10:07;;;;;;;3.40;3.10;;;21.20;99.90;;;;;;5114237;28;20191;-64
2021/05/15 05:12:33;;;;;;;4.00;3.53;;;22.00;99.90;;;;;;5114234;28;20275;-65
2021/05/15 05:14:59;;;;;;;4.22;3.83;;;22.50;99.90;;;;;;5114173;28;20192;-63
2021/05/15 05:17:26;;;;;;;3.55;3.25;;;22.50;99.90;;;;;;5113806;28;20239;-64
2021/05/15 05:19:52;;;;;;;3.80;3.50;;;21.60;99.90;;;;;;5113724;28;20218;-64
2021/05/15 05:22:19;;;;;;;3.80;3.38;;;20.70;99.90;;;;;;5113729;28;20630;-65
2021/05/15 05:24:46;;;;;;;3.88;3.58;;;19.70;99.90;;;;;;5113864;28;20606;-64
2021/05/15 05:27:12;;;;;;;3.83;3.40;;;18.50;99.90;;;;;;5113969;28;20198;-64
2021/05/15 05:29:39;;;;;;;4.47;3.38;;;17.40;99.90;;;;;;5113949;28;20187;-63
2021/05/15 05:32:08;;;;;;;3.90;3.58;;;16.40;99.90;;;;;;5114027;28;20603;-64
2021/05/15 05:34:35;;;;;;;3.70;3.40;;;15.70;99.90;;;;;;5113869;28;20643;-64
2021/05/15 05:37:02;;;;;;;3.60;3.30;;;15.20;99.90;;;;;;5113554;28;20198;-63
2021/05/15 05:39:29;;;;;;;3.70;3.40;;;14.90;99.90;;;;;;5112816;28;20251;-64
2021/05/15 05:41:55;;;;;;;3.90;3.50;;;14.50;99.90;;;;;;5113091;28;20206;-64
2021/05/15 05:44:21;;;;;;;3.40;3.10;;;14.30;99.90;;;;;;5113747;28;20223;-64
2021/05/15 05:46:47;;;;;;;3.85;3.25;;;14.10;99.90;;;;;;5113547;28;20194;-64
2021/05/15 05:49:14;;;;;;;4.10;3.70;;;14.00;99.90;;;;;;5113648;28;20229;-64
2021/05/15 05:51:40;;;;;;;3.72;3.42;;;13.90;99.90;;;;;;5113650;28;20712;-62
2021/05/15 05:54:06;;;;;;;4.67;3.27;;;14.00;99.90;;;;;;5113649;28;20332;-64
2021/05/15 05:56:34;;;;;;;3.80;2.80;;;14.20;99.90;;;;;;5113448;28;20195;-64
2021/05/15 05:59:00;;;;;;;3.10;2.83;;;14.30;99.90;;;;;;5113174;28;20234;-63
2021/05/15 06:01:27;;;;;;;2.90;2.70;;;14.40;99.90;;;;;;5113609;28;20525;-64
2021/05/15 06:03:53;;;;;;;2.92;2.63;;;14.50;99.90;;;;;;5113423;28;20249;-65
2021/05/15 06:06:19;;;;;;;3.33;2.70;;;14.70;99.90;;;;;;5113486;28;20196;-64
2021/05/15 06:08:45;;;;;;;2.72;2.45;;;14.80;99.90;;;;;;5113416;28;20227;-63
2021/05/15 06:11:12;;;;;;;3.15;2.85;;;14.80;99.90;;;;;;5113284;28;20183;-64
2021/05/15 06:13:39;;;;;;;3.67;2.50;;;14.70;99.90;;;;;;5112790;28;20203;-64
2021/05/15 06:16:06;;;;;;;3.17;2.40;;;14.80;99.90;;;;;;5113295;28;20193;-63
2021/05/15 06:18:32;;;;;;;2.60;2.40;;;15.10;99.90;;;;;;5112735;28;20195;-63
2021/05/15 06:20:59;;;;;;;2.78;2.47;;;15.20;99.90;;;;;;5112521;28;20242;-63
2021/05/15 06:23:25;;;;;;;3.10;2.17;;;15.30;99.90;;;;;;5112870;28;20202;-63
2021/05/15 06:25:52;;;;;;;2.53;1.98;;;15.30;99.90;;;;;;5113129;28;20192;-64
2021/05/15 06:28:19;;;;;;;2.40;2.20;;;15.30;99.90;;;;;;5112970;28;20187;-63
2021/05/15 06:30:46;;;;;;;2.33;2.13;;;15.40;99.90;;;;;;5112690;28;20187;-64
2021/05/15 06:33:13;;;;;;;3.00;2.08;;;15.40;99.90;;;;;;5113190;28;20228;-67
2021/05/15 06:35:39;;;;;;;2.60;2.05;;;15.30;99.90;;;;;;5112724;28;20187;-67
2021/05/15 06:38:06;;;;;;;2.45;2.25;;;15.30;99.90;;;;;;5112530;28;20331;-69
2021/05/15 06:40:33;;;;;;;3.72;2.45;;;15.40;99.90;;;;;;5112924;28;20268;-67
2021/05/15 06:42:59;;;;;;;2.50;2.30;;;15.50;99.90;;;;;;5112761;28;20199;-66
2021/05/15 06:45:26;;;;;;;2.25;2.05;;;15.50;99.90;;;;;;5112617;28;20195;-67
2021/05/15 06:47:54;;;;;;;2.22;2.03;;;15.50;99.90;;;;;;5112645;28;20564;-67
2021/05/15 06:50:20;;;;;;;2.35;2.08;;;15.60;99.90;;;;;;5112828;28;20188;-67
2021/05/15 06:52:46;;;;;;;5.45;2.22;;;15.60;99.90;;;;;;5112739;28;20200;-68
2021/05/15 06:55:13;;;;;;;2.22;2.03;;;15.60;99.90;;;;;;5112596;28;20553;-67
2021/05/15 06:57:39;;;;;;;2.47;2.28;;;15.70;99.90;;;;;;5112552;28;20191;-66
2021/05/15 07:00:07;;;;;;;3.88;2.15;;;15.80;99.90;;;;;;5116335;28;20220;-68
2021/05/15 07:02:34;;;;;;;2.60;2.30;;;16.00;99.90;;;;;;5116810;28;20244;-66
2021/05/15 07:05:01;;;;;;;3.10;1.95;;;16.10;99.90;;;;;;5116975;28;20628;-66
2021/05/15 07:07:27;;;;;;;2.10;1.98;;;16.20;99.90;;;;;;5113685;28;21097;-66
2021/05/15 07:09:53;;;;;;;2.20;2.00;;;16.40;99.90;;;;;;5115315;28;20687;-66
2021/05/15 07:12:21;;;;;;;2.67;1.92;;;16.50;99.90;;;;;;5116183;28;20192;-66
2021/05/15 07:14:48;;;;;;;2.28;2.03;;;16.70;99.90;;;;;;5116290;28;20200;-68
2021/05/15 07:17:14;;;;;;;3.78;2.13;;;16.90;99.90;;;;;;5116422;28;20188;-67
2021/05/15 07:19:40;;;;;;;2.97;2.05;;;16.80;99.90;;;;;;5115902;28;20223;-66
2021/05/15 07:22:07;;;;;;;3.60;2.03;;;16.90;99.90;;;;;;5113201;28;20276;-66
2021/05/15 07:24:34;;;;;;;2.17;1.77;;;16.90;99.90;;;;;;5116392;28;20225;-66
2021/05/15 07:27:00;;;;;;;2.92;1.70;;;16.90;99.90;;;;;;5116096;28;20620;-67
2021/05/15 07:29:26;;;;;;;2.20;1.98;;;16.90;99.90;;;;;;5116156;28;20230;-68
2021/05/15 07:31:52;;;;;;;1.80;1.40;;;16.90;99.90;;;;;;5115808;28;20191;-67
2021/05/15 07:34:19;;;;;;;1.70;1.35;;;16.90;99.90;;;;;;5116140;28;20238;-66
2021/05/15 07:36:45;;;;;;;1.65;1.55;;;17.10;99.90;;;;;;5115225;28;20192;-67
2021/05/15 07:39:12;;;;;;;2.03;1.90;;;17.40;99.90;;;;;;5115572;28;20611;-66
2021/05/15 07:41:39;;;;;;;1.60;1.50;;;17.60;99.90;;;;;;5115817;28;20630;-66
2021/05/15 07:44:05;;;;;;;1.75;1.60;;;17.70;99.90;;;;;;5115490;28;20624;-68
2021/05/15 07:46:32;;;;;;;1.65;1.40;;;17.80;99.90;;;;;;5115920;28;20635;-67
2021/05/15 07:48:58;;;;;;;2.65;1.45;;;18.00;99.90;;;;;;5115859;28;20282;-67
2021/05/15 07:51:25;;;;;;;1.92;1.40;;;18.10;99.90;;;;;;5115474;28;20256;-68
2021/05/15 07:53:53;;;;;;;1.60;1.50;;;18.10;99.90;;;;;;5115478;28;20192;-66
2021/05/15 07:56:21;;;;;;;1.50;1.40;;;18.20;99.90;;;;;;5115811;28;20213;-67
2021/05/15 07:58:47;;;;;;;1.67;1.50;;;18.30;99.90;;;;;;5114750;28;20239;-67
2021/05/15 08:01:13;;;;;;;3.20;1.52;;;18.00;99.90;;;;;;5115895;28;20667;-69
2021/05/15 08:03:39;;;;;;;1.48;1.38;;;18.00;99.90;;;;;;5115583;28;20282;-66
2021/05/15 08:06:06;;;;;;;3.22;1.40;;;17.90;99.90;;;;;;5115490;28;20199;-66
2021/05/15 08:08:32;;;;;;;1.90;1.40;;;17.90;99.90;;;;;;5115313;28;20248;-68
2021/05/15 08:10:58;;;;;;;1.77;1.50;;;18.00;99.90;;;;;;5115764;28;20591;-67
2021/05/15 08:13:25;;;;;;;2.08;1.50;;;18.00;99.90;;;;;;5114981;28;20283;-67
2021/05/15 08:15:52;;;;;;;1.63;1.48;;;18.10;99.90;;;;;;5114310;28;20192;-67
2021/05/15 08:18:18;;;;;;;2.95;1.58;;;18.10;99.90;;;;;;5114889;28;20200;-64
2021/05/15 08:20:45;;;;;;;2.65;1.40;;;18.10;99.90;;;;;;5114840;28;20303;-71
2021/05/15 08:23:11;;;;;;;1.92;1.40;;;18.30;99.90;;;;;;5115202;28;20211;-67
2021/05/15 08:25:37;;;;;;;2.30;1.60;;;18.40;99.90;;;;;;5115156;28;20348;-67
2021/05/15 08:28:09;;;;;;;1.50;1.30;;;18.40;99.90;;;;;;5114684;28;20195;-66
2021/05/15 08:30:36;;;;;;;1.92;1.60;;;18.30;99.90;;;;;;5115010;28;20516;-65
2021/05/15 08:33:03;;;;;;;1.60;1.50;;;18.10;99.90;;;;;;5115038;28;20202;-66
2021/05/15 08:35:29;;;;;;;1.75;1.63;;;17.80;99.90;;;;;;5115036;28;20282;-66
2021/05/15 08:37:56;;;;;;;1.67;1.55;;;17.50;99.90;;;;;;5114738;28;20223;-66
2021/05/15 08:40:25;;;;;;;1.88;1.50;;;17.50;99.90;;;;;;5114706;28;20255;-66
2021/05/15 08:42:53;;;;;;;3.50;1.60;;;17.50;99.90;;;;;;5114431;28;20656;-66
2021/05/15 08:45:22;;;;;;;3.38;1.40;;;17.50;99.90;;;;;;5114738;28;20686;-66
2021/05/15 08:47:51;;;;;;;2.63;1.20;;;17.50;99.90;;;;;;5114285;28;20269;-65
2021/05/15 08:50:20;;;;;;;2.58;1.42;;;17.60;99.90;;;;;;5114643;28;20274;-66
2021/05/15 08:52:48;;;;;;;2.20;1.30;;;17.50;99.90;;;;;;5114535;28;20202;-67
2021/05/15 08:55:16;;;;;;;3.22;1.40;;;17.40;99.90;;;;;;5114233;28;20537;-66
2021/05/15 08:57:43;;;;;;;1.75;1.40;;;17.20;99.90;;;;;;5114133;28;20210;-66
2021/05/15 09:00:12;;;;;;;1.48;1.10;;;17.20;99.90;;;;;;5113986;28;20310;-65
2021/05/15 09:02:39;;;;;;;1.45;1.10;;;17.10;99.90;;;;;;5114312;28;20203;-62
2021/05/15 09:05:14;;;;;;;2.85;1.10;;;17.20;99.90;;;;;;5114099;28;20191;-60
2021/05/15 09:07:47;;;;;;;1.52;1.40;;;17.30;99.90;;;;;;5113802;28;20184;-62
2021/05/15 09:10:14;;;;;;;1.10;1.00;;;17.30;99.90;;;;;;5113971;28;20275;-64
2021/05/15 09:12:41;;;;;;;1.48;1.00;;;17.30;99.90;;;;;;5113669;28;20203;-65
2021/05/15 09:15:11;;;;;;;2.10;1.05;;;17.30;99.90;;;;;;5113564;28;20230;-64
2021/05/15 09:17:45;;;;;;;2.55;1.20;;;17.30;99.90;;;;;;5113976;28;20200;-64
2021/05/15 09:20:23;;;;;;;1.23;1.10;;;17.40;99.90;;;;;;5113964;28;20340;-66
2021/05/15 09:22:51;;;;;;;1.30;0.90;;;17.70;99.90;;;;;;5113663;28;20195;-64
2021/05/15 09:25:19;;;;;;;1.15;1.00;;;17.80;99.90;;;;;;5113776;28;20210;-66
2021/05/15 09:27:47;;;;;;;1.55;0.77;;;17.70;99.90;;;;;;5113756;28;20294;-67
2021/05/15 09:30:15;;;;;;;1.98;0.77;;;17.50;99.90;;;;;;5113731;28;20195;-68
2021/05/15 09:32:43;;;;;;;1.15;0.98;;;17.40;99.90;;;;;;5113846;28;20234;-69
2021/05/15 09:35:23;;;;;;;0.80;0.80;;;17.40;99.90;;;;;;5113784;28;20577;-66
2021/05/15 09:37:51;;;;;;;1.67;1.00;;;17.30;99.90;;;;;;5113476;28;20247;-61
2021/05/15 09:40:21;;;;;;;1.50;1.00;;;17.20;99.90;;;;;;5113402;28;20251;-67
2021/05/15 09:43:07;;;;;;;0.68;0.68;;;17.00;99.90;;;;;;5113222;28;20304;-68
2021/05/15 09:45:37;;;;;;;1.58;0.90;;;16.90;99.90;;;;;;5113492;28;20204;-67
2021/05/15 09:48:07;;;;;;;1.70;1.00;;;16.80;99.90;;;;;;5113634;28;20571;-67
2021/05/15 09:50:37;;;;;;;2.28;0.80;;;16.80;99.90;;;;;;5113623;28;20226;-64
2021/05/15 09:53:11;;;;;;;1.13;0.90;;;16.90;99.90;;;;;;5113451;28;20266;-64
2021/05/15 09:55:39;;;;;;;1.52;0.98;;;17.30;99.90;;;;;;5113500;28;20187;-61
2021/05/15 09:58:09;;;;;;;1.20;0.90;;;17.50;99.90;;;;;;5112944;28;20246;-71
2021/05/15 10:00:41;;;;;;;0.95;0.80;;;17.70;99.90;;;;;;5113127;28;20241;-67
2021/05/15 10:03:20;;;;;;;1.20;0.85;;;17.90;99.90;;;;;;5113159;28;20631;-65
2021/05/15 10:05:59;;;;;;;1.05;0.90;;;18.20;99.90;;;;;;5113355;28;20307;-65
2021/05/15 10:08:27;;;;;;;0.90;0.90;;;18.30;99.90;;;;;;5112807;28;20274;-63
2021/05/15 10:10:55;;;;;;;1.02;1.00;;;18.50;99.90;;;;;;5112883;28;20234;-66
2021/05/15 10:13:23;;;;;;;1.02;0.90;;;18.70;99.90;;;;;;5112454;28;20203;-60
2021/05/15 10:15:50;;;;;;;1.20;0.90;;;19.00;99.90;;;;;;5112345;28;20252;-60
2021/05/15 10:18:18;;;;;;;1.17;0.90;;;19.10;99.90;;;;;;5112363;28;20217;-61
2021/05/15 10:20:46;;;;;;;0.90;0.70;;;18.80;99.90;;;;;;5112439;28;20302;-60
2021/05/15 10:23:23;;;;;;;1.25;1.00;;;18.40;99.90;;;;;;5112626;28;20198;-60
2021/05/15 10:26:00;;;;;;;1.25;0.90;;;18.10;99.90;;;;;;5112675;28;20179;-60
2021/05/15 10:28:30;;;;;;;2.53;0.98;;;17.90;99.90;;;;;;5112458;28;20256;-63
2021/05/15 10:31:09;;;;;;;2.17;0.90;;;17.80;99.90;;;;;;5112528;28;20227;-62
2021/05/15 10:33:38;;;;;;;1.65;1.02;;;17.90;99.90;;;;;;5114374;28;20650;-61
2021/05/15 10:36:07;;;;;;;2.75;1.10;;;17.80;99.90;;;;;;5116852;28;20230;-62
2021/05/15 10:38:38;;;;;;;1.10;1.00;;;17.70;99.90;;;;;;5116308;28;20235;-62
2021/05/15 10:41:11;;;;;;;1.85;1.00;;;17.70;99.90;;;;;;5116424;28;20238;-69
2021/05/15 10:43:39;;;;;;;1.42;1.10;;;17.60;99.90;;;;;;5116104;28;20206;-64
2021/05/15 10:46:15;;;;;;;1.02;0.93;;;17.40;99.90;;;;;;5116226;28;20227;-64
2021/05/15 10:48:53;;;;;;;2.38;1.08;;;17.20;99.90;;;;;;5116272;28;20259;-63
2021/05/15 10:51:35;;;;;;;1.13;0.93;;;17.00;99.90;;;;;;5116450;28;20211;-66
2021/05/15 10:54:04;;;;;;;0.93;0.90;;;16.90;99.90;;;;;;5116587;28;20225;-68
2021/05/15 10:56:51;;;;;;;0.70;0.70;;;16.80;99.90;;;;;;5116605;28;20184;-69
2021/05/15 10:59:19;;;;;;;0.70;0.70;;;16.80;99.90;;;;;;5115808;28;20282;-67
2021/05/15 11:01:49;;;;;;;0.80;0.80;;;17.00;99.90;;;;;;5115983;28;20497;-62
2021/05/15 11:04:32;;;;;;;1.95;1.02;;;17.30;99.90;;;;;;5116505;28;20205;-63
2021/05/15 11:07:02;;;;;;;1.10;0.70;;;17.70;99.90;;;;;;5113988;28;20199;-62
2021/05/15 11:09:32;;;;;;;1.25;0.82;;;18.00;99.90;;;;;;5116434;28;20573;-62
2021/05/15 11:12:05;;;;;;;0.80;0.80;;;18.00;99.90;;;;;;5116047;28;20196;-64
2021/05/15 11:14:34;;;;;;;1.92;0.82;;;17.70;99.90;;;;;;5116547;28;20233;-66
2021/05/15 11:17:23;;;;;;;2.30;0.70;;;17.50;99.90;;;;;;5116300;28;20199;-66
2021/05/15 11:19:57;;;;;;;0.80;0.80;;;17.40;99.90;;;;;;5105285;28;20203;-68
2021/05/15 11:22:41;;;;;;;1.20;0.90;;;17.40;99.90;;;;;;5116245;28;20294;-68
2021/05/15 11:25:24;;;;;;;0.60;0.60;;;17.70;99.90;;;;;;5116271;28;20199;-64
2021/05/15 11:27:55;;;;;;;0.63;0.63;;;18.00;99.90;;;;;;5116128;28;20187;-64
2021/05/15 11:30:24;;;;;;;0.88;0.57;;;18.30;99.90;;;;;;5116067;28;20180;-62
2021/05/15 11:33:01;;;;;;;0.70;0.70;;;18.50;99.90;;;;;;5115943;28;20242;-64
2021/05/15 11:35:30;;;;;;;0.65;0.60;;;18.60;99.90;;;;;;5115491;28;20670;-61
2021/05/15 11:38:08;;;;;;;0.70;0.70;;;18.50;99.90;;;;;;5115386;28;20239;-66
2021/05/15 11:40:38;;;;;;;0.60;0.60;;;18.40;99.90;;;;;;5115853;28;20215;-62
2021/05/15 11:43:06;;;;;;;0.95;0.70;;;18.30;99.90;;;;;;5115482;28;20199;-61
2021/05/15 11:45:35;;;;;;;0.88;0.70;;;18.20;99.90;;;;;;5115045;28;20238;-62
2021/05/15 11:48:11;;;;;;;1.17;0.80;;;18.20;99.90;;;;;;5115582;28;20204;-62
2021/05/15 11:50:39;;;;;;;0.60;0.60;;;18.20;99.90;;;;;;5115887;28;20189;-63
2021/05/15 11:53:07;;;;;;;0.70;0.70;;;18.30;99.90;;;;;;5115762;28;20235;-65
2021/05/15 11:55:34;;;;;;;0.60;0.60;;;18.40;99.90;;;;;;5115466;28;20294;-61
2021/05/15 11:58:04;;;;;;;0.65;0.60;;;18.60;99.90;;;;;;5115472;28;20210;-63
2021/05/15 12:00:32;;;;;;;0.68;0.60;;;18.30;99.90;;;;;;5115084;28;20235;-66
2021/05/15 12:03:04;;;;;;;0.70;0.70;;;18.20;99.90;;;;;;5115161;28;20707;-66
2021/05/15 12:05:31;;;;;;;0.75;0.75;;;18.10;99.90;;;;;;5115235;28;20183;-67
2021/05/15 12:08:01;;;;;;;2.25;0.77;;;18.30;99.90;;;;;;5115476;28;20225;-66
2021/05/15 12:10:28;;;;;;;0.60;0.60;;;18.50;99.90;;;;;;5115768;28;20223;-66
2021/05/15 12:12:57;;;;;;;0.73;0.70;;;18.70;99.90;;;;;;5115148;28;20230;-65
2021/05/15 12:15:28;;;;;;;0.60;0.60;;;18.80;99.90;;;;;;5115178;28;20199;-65
2021/05/15 12:17:58;;;;;;;0.82;0.60;;;18.90;99.90;;;;;;5114841;28;20264;-66
2021/05/15 12:20:31;;;;;;;0.93;0.60;;;18.90;99.90;;;;;;5114708;28;20294;-66
2021/05/15 12:23:17;;;;;;;0.60;0.60;;;19.10;99.90;;;;;;5113903;28;20643;-65
2021/05/15 12:25:56;;;;;;;0.60;0.60;;;19.20;99.90;;;;;;5114927;28;20276;-66
2021/05/15 12:28:25;;;;;;;0.60;0.60;;;19.30;99.90;;;;;;5114676;28;20278;-66
2021/05/15 12:30:53;;;;;;;0.57;0.57;;;19.50;99.90;;;;;;5114696;28;20223;-66
2021/05/15 12:33:24;;;;;;;0.75;0.60;;;19.60;99.90;;;;;;5114566;28;20678;-66
2021/05/15 12:36:01;;;;;;;0.60;0.60;;;19.50;99.90;;;;;;5114558;28;20215;-61
2021/05/15 12:38:29;;;;;;;0.70;0.60;;;19.30;99.90;;;;;;5114060;28;20313;-61
2021/05/15 12:41:08;;;;;;;1.38;0.70;;;19.20;99.90;;;;;;5114174;28;20219;-61
2021/05/15 12:43:38;;;;;;;1.00;0.65;;;19.20;99.90;;;;;;5114395;28;20209;-60
2021/05/15 12:46:14;;;;;;;2.70;0.70;;;19.20;99.90;;;;;;5114310;28;20199;-61
2021/05/15 12:48:43;;;;;;;0.90;0.60;;;19.00;99.90;;;;;;5114747;28;20297;-60